Skip Navigation Links
NOAA logo - Click to go to the NOAA homepage
NOAA's National Weather Service
Alaska Aviation Weather Unit
  NWS logo - Click to go to the NWS homepage
Left Navbar Graphic     21 AKDT = 05 GMT

   
NOAA is celebrating 200 years of science, service, and stewardship. Visit the NOAA 200th celebration Web site to learn more.
USA.gov is the U.S. Government's official Web portal to all Federal, state and local government Web resources and services.
Facebook
NWS on Facebook

AAWU Home :: Display TAF Add Bookmark
TAF PAKT 270218Z 2702/2724 15015KT P6SM -RA BKN015 OVC025
     FM270400 15011KT P6SM -SHRA BKN025 OVC035
     FM270600 14008KT P6SM VCSH SCT025 OVC035
     FM272100 14011KT P6SM -SHRA OVC025 AMD LTD TO CLD VIS AND
      WIND
      2706/2715=
METAR PAKT 262353Z 14010KT 10SM -RA SCT015 BKN021 OVC031 08/07 A2955=

METAR PAKT 270053Z 13022G29KT 10SM FEW018 BKN027 OVC034 08/07 A2955=

METAR PAKT 270153Z 13012KT 10SM -RA BKN014 OVC023 08/07 A2957=

METAR PAKT 270253Z AUTO 14009KT 10SM -RA SCT006 BKN023 OVC035 08/08
     A2960=

METAR PAKT 270353Z 13006KT 10SM -RA FEW015 BKN032 OVC039 08/08 A2964=

METAR PAKT 270453Z 13005KT 10SM -RA BKN025 BKN030 OVC037 07/06 A2970
 RMK AO2 SLP056 P0004 T00720061 $=


NOAA's National Weather Service
Alaska Aviation Weather Unit
6930 Sand Lake Road
Anchorage, AK 99502-1845
Disclaimer
Credits
Glossary
Privacy Policy
About Us
Career Opportunities
Contact AAWU Internet Services Site last modified: April, 17th 2012